Tiempo atmosférico en la estación meteorológica de Escorca, Lluc, Illes Balears (490 m.)



Fecha
DESCASC
Temp. máxima en grados centígrados (hora)
DESCASC
Temp. mínima en grados centígrados (hora)
DESCASC
Temp. media en grados centígrados
DESCASC
Racha de viento máxima en m/sg (hora)
DESCASC
Velocidad máxima media en intervalos de 10 minutos(hora)
DESCASC
Precipitaciones diarias en mm
DESCASC
Precipitaciones de 00:00 a 06:00 en mm
DESCASC
Precipitaciones de 06:00 a 12:00 en mm
DESCASC
Precipitaciones de 12:00 a 18:00 en mm
DESCASC
Precipitaciones de 18:00 a 24:00 en mm
DESCASC
23-06-2019 28.7 (13:50) 13.3 (06:50) 21 8.33 (23:59) 2.78 (23:59) 0 0 0 0 0
22-06-2019 24.1 (13:30) 11.9 (02:10) 18 5 (16:00) 1.94 (14:00) 0 0 0 0 0
21-06-2019 24.8 (13:20) 13.8 (05:50) 19.3 6.67 (10:40) 2.78 (10:40) 0 0 0 0 0
20-06-2019 27.1 (10:40) 12 (00:00) 19.6 8.06 (13:30) 2.78 (11:20) 0 0 0 0 0
19-06-2019 27.8 (10:30) 11.1 (00:00) 19.4 12.78 (11:40) 2.5 (11:50) 0 0 0 0 0
18-06-2019 27.6 (13:40) 9.8 (00:00) 18.7 8.61 (20:40) 2.78 (21:00) 0 0 0 0 0
17-06-2019 27.2 (11:50) 10.5 (00:00) 18.9 5.83 (14:40) 1.67 (16:20) 0 0 0 0 0
16-06-2019 24.5 (14:30) 9.7 (00:00) 17.1 6.94 (12:30) 2.22 (17:20) 0 0 0 0 0
15-06-2019 25.4 (14:00) 9.3 (00:00) 17.3 4.44 (14:20) 1.11 (17:40) 0 0 0 0 0
14-06-2019 22.1 (17:10) 16.4 (00:00) 19.3 9.17 (22:10) 4.17 (21:50) 0 0 0 0 0
13-06-2019 21.8 (14:20) 11.2 (00:00) 16.5 8.89 (19:20) 3.06 (18:00) 0 0 0 0 0
12-06-2019 18.5 (15:50) 11.4 (00:00) 14.9 5.83 (19:00) 2.22 (16:00) 0.3 0.3 0 0 0
11-06-2019 22.3 (15:30) 12 (00:00) 17.1 8.89 (15:00) 3.06 (14:30) 0.5 0 0 0 0.5
10-06-2019 22.8 (15:30) 14.3 (00:00) 18.5 6.39 (19:30) 2.22 (21:50) 0 0 0 0 0
09-06-2019 25.4 (15:20) 15.9 (00:00) 20.6 9.72 (02:00) 3.61 (03:30) 0 0 0 0 0
08-06-2019 20.6 (11:30) 12.6 (00:00) 16.6 9.17 (22:40) 3.33 (12:30) 0 0 0 0 0
07-06-2019 25.8 (12:50) 12.4 (00:00) 19.1 12.5 (03:20) 4.17 (01:00) 0 0 0 0 0
06-06-2019 22.4 (13:00) 11.2 (00:00) 16.8 10.56 (23:00) 3.89 (21:50) 0 0 0 0 0
05-06-2019 25.4 (14:00) 13.1 (00:00) 19.3 11.11 (10:30) 4.17 (10:30) 0 0 0 0 0
04-06-2019 26.8 (16:00) 10.7 (00:00) 18.7 9.17 (20:50) 3.06 (16:20) 0 0 0 0 0
03-06-2019 26.4 (14:40) 8.3 (00:00) 17.3 7.5 (14:20) 2.22 (10:40) 0 0 0 0 0
02-06-2019 24.6 (14:40) 7.7 (00:00) 16.2 6.39 (17:30) 2.22 (20:50) 0 0 0 0 0
01-06-2019 23.6 (13:40) 8.2 (00:00) 15.9 6.11 (13:00) 2.22 (13:00) 0 0 0 0 0
31-05-2019 22.8 (15:50) 6.9 (00:00) 14.8 5.83 (12:40) 1.67 (11:50) 0 0 0 0 0
30-05-2019 19.6 (16:30) 6.2 (00:00) 12.9 6.11 (14:20) 1.67 (13:30) 0 0 0 0 0
29-05-2019 17 (15:10) 8.1 (00:00) 12.6 5.28 (14:10) 1.67 (10:10) 0 0 0 0 0
28-05-2019 18.2 (11:50) 8.8 (00:00) 13.5 5.28 (20:40) 1.67 (20:30) 0 0 0 0 0
27-05-2019 20.3 (14:30) 8.1 (00:00) 14.2 5.83 (17:10) 1.39 (10:40) 0 0 0 0 0

Gráficas

Temp. máximas Temp. mínimas Temp. medias Precipitaciones Rachas de viento máximas Velocidades máximas media en intervalos de 10 minutos

Datos horarios

Fecha y hora oficial Temperatura (ºC) Velocidad del viento (km/h) Dirección del viento Racha (km/h) Dirección de racha Precipitación (mm) Presión (hPa) Tendencia (hPa) Humedad (%)
2019-06-25 23:00:00 26.5 11 Sudeste 26 Sudeste 0 -- -- 41
2019-06-25 22:00:00 26.5 9 Sudeste 22 Sudeste 0 -- -- 46
2019-06-25 21:00:00 25.8 7 Sudeste 21 Sudeste 0 -- -- 58
2019-06-25 20:00:00 26.6 12 Sudeste 32 Sudeste 0 -- -- 58
2019-06-25 19:00:00 28.2 9 Sudeste 24 Sudeste 0 -- -- 55
2019-06-25 18:00:00 28.7 9 Sudeste 29 Sur 0 -- -- 53
2019-06-25 17:00:00 29.5 8 Sudeste 25 Sudeste 0 -- -- 51
2019-06-25 16:00:00 29.6 5 Sudeste 22 Sur 0 -- -- 51
2019-06-25 15:00:00 29.2 7 Sudeste 24 Sur 0 -- -- 52
2019-06-25 14:00:00 28.7 4 Sur 24 Sur 0 -- -- 53
2019-06-25 13:00:00 27.8 3 Sur 21 Sudeste 0 -- -- 54
2019-06-25 12:00:00 26.8 4 Sudeste 15 Sudeste 0 -- -- 59
2019-06-25 11:00:00 25.4 4 Noroeste 12 Oeste 0 -- -- 66
2019-06-25 10:00:00 23.7 4 Noroeste 12 Noroeste 0 -- -- 69
2019-06-25 09:00:00 23 3 Oeste 14 Oeste 0 -- -- 71
2019-06-25 08:00:00 25.3 0 Calma 23 Sudoeste 0 -- -- 45
2019-06-25 07:00:00 27.5 4 Sudeste 35 Sudoeste 0 -- -- 32
2019-06-25 06:00:00 26.8 6 Sur 34 Sudoeste 0 -- -- 30
2019-06-25 05:00:00 28 8 Sur 39 Sur 0 -- -- 28
2019-06-25 04:00:00 25.9 10 Sur 32 Sur 0 -- -- 33
2019-06-25 03:00:00 21.5 3 Sudeste 19 Sudoeste 0 -- -- 46
2019-06-25 02:00:00 22.5 0 Calma 13 Sudeste 0 -- -- 43
2019-06-25 01:00:00 25.1 6 Sudeste 18 Sudeste 0 -- -- 35
2019-06-25 00:00:00 25.6 6 Sudeste 23 Sur 0 -- -- 33
2019-06-24 23:00:00 24.6 7 Sudeste 19 Este 0 -- -- 45
2019-06-24 22:00:00 22.2 3 Este 19 Sudeste 0 -- -- 75
2019-06-24 21:00:00 24.2 4 Sudeste 18 Sudeste 0 -- -- 63
2019-06-24 20:00:00 25.4 5 Sudeste 22 Sur 0 -- -- 62
2019-06-24 19:00:00 26.7 6 Sudeste 22 Sudeste 0 -- -- 57
2019-06-24 18:00:00 28.1 4 Sudeste 24 Sur 0 -- -- 51
2019-06-24 17:00:00 28.2 8 Sudeste 24 Sur 0 -- -- 51
2019-06-24 16:00:00 28.3 9 Sudeste 26 Sur 0 -- -- 50
2019-06-24 15:00:00 27.3 8 Sudeste 26 Sudeste 0 -- -- 51
2019-06-24 14:00:00 26.7 12 Sudeste 32 Sur 0 -- -- 50
2019-06-24 13:00:00 26 12 Sudeste 32 Sudeste 0 -- -- 48
2019-06-24 12:00:00 26.1 12 Sudeste 41 Sudeste 0 -- -- 42
2019-06-24 11:00:00 26.2 13 Sur 46 Este 0 -- -- 36
2019-06-24 10:00:00 26 13 Sur 40 Sur 0 -- -- 32
2019-06-24 09:00:00 24.2 13 Sudeste 38 Sudoeste 0 -- -- 28
2019-06-24 08:00:00 23.9 13 Sudeste 36 Sudeste 0 -- -- 23
2019-06-24 07:00:00 21.8 12 Sudeste 31 Sudeste 0 -- -- 31
2019-06-24 06:00:00 22 12 Sudeste 32 Sudeste 0 -- -- 30
2019-06-24 05:00:00 22.5 11 Sur 30 Sur 0 -- -- 25
2019-06-24 04:00:00 22.1 9 Sur 20 Sur 0 -- -- 26
2019-06-24 03:00:00 21.8 6 Sudeste 30 Sur 0 -- -- 26
2019-06-24 02:00:00 22 7 Sudeste 26 Sudeste 0 -- -- 26
2019-06-24 01:00:00 22.4 8 Sudeste 27 Sudeste 0 -- -- 26
2019-06-24 00:00:00 22.2 10 Sur 30 Sur 0 -- -- 32
2019-06-23 23:00:00 21.3 7 Sudeste 19 Sudeste 0 -- -- 40
2019-06-23 22:00:00 21.6 7 Este 21 Sur 0 -- -- 41
2019-06-23 21:00:00 22.8 7 Sudeste 19 Sur 0 -- -- 41
2019-06-23 20:00:00 24.2 5 Este 17 Sur 0 -- -- 40
2019-06-23 19:00:00 24.9 6 Sudeste 21 Sudeste 0 -- -- 40
2019-06-23 18:00:00 25.9 7 Sur 21 Sur 0 -- -- 40
2019-06-23 17:00:00 27.2 6 Sur 21 Sudoeste 0 -- -- 38
2019-06-23 16:00:00 26.9 6 Sur 26 Este 0 -- -- 38
2019-06-23 15:00:00 28.1 7 Sudeste 23 Sudeste 0 -- -- 32
2019-06-23 14:00:00 28.3 6 Sudeste 19 Sudeste 0 -- -- 28
2019-06-23 13:00:00 28 7 Sudeste 18 Sudeste 0 -- -- 28
2019-06-23 12:00:00 27.4 8 Sudeste 20 Sudeste 0 -- -- 27
2019-06-23 11:00:00 25.7 6 Este 19 Sudeste 0 -- -- 37
2019-06-23 10:00:00 23.4 7 Sudeste 20 Sudeste 0 -- -- 46
2019-06-23 09:00:00 20.9 0 Calma 7 Sur 0 -- -- 60
2019-06-23 08:00:00 14.7 0 Calma -- -- 0 -- -- 84
2019-06-23 07:00:00 13.3 0 Calma -- -- 0 -- -- 83
2019-06-23 06:00:00 14.2 0 Calma -- -- 0 -- -- 79
2019-06-23 05:00:00 15.9 0 Calma 14 Sudeste 0 -- -- 70
2019-06-23 04:00:00 18 5 Este 19 Sudeste 0 -- -- 63
2019-06-23 03:00:00 17.2 0 Calma 12 Sudeste 0 -- -- 66
2019-06-23 02:00:00 18.6 4 Este 12 Este 0 -- -- 64
2019-06-23 01:00:00 19.1 5 Este 17 Sudeste 0 -- -- 64
2019-06-23 00:00:00 19.2 7 Este 15 Este 0 -- -- 64
2019-06-22 23:00:00 18.4 2 Este 12 Nordeste 0 -- -- 64
2019-06-22 22:00:00 18 0 Calma 12 Este 0 -- -- 61
2019-06-22 21:00:00 20.1 4 Este 12 Sudeste 0 -- -- 59
2019-06-22 20:00:00 21.7 4 Este 17 Sudeste 0 -- -- 52
2019-06-22 19:00:00 22.3 3 Sudeste 14 Sur 0 -- -- 48
2019-06-22 18:00:00 22.2 5 Sudeste 16 Sudeste 0 -- -- 48
2019-06-22 17:00:00 22.6 3 Sudeste 16 Sur 0 -- -- 48
2019-06-22 16:00:00 21.8 6 Sudeste 18 Sur 0 -- -- 49
2019-06-22 15:00:00 22.9 7 Sudeste 16 Este 0 -- -- 45
2019-06-22 14:00:00 21.8 7 Sudeste 18 Sudeste 0 -- -- 48
2019-06-22 13:00:00 22.9 5 Sudeste 17 Sur 0 -- -- 48
2019-06-22 12:00:00 23 4 Este 12 Sudeste 0 -- -- 45
2019-06-22 11:00:00 22.7 0 Calma 15 Nordeste 0 -- -- 44
2019-06-22 10:00:00 21.8 4 Nordeste 15 Nordeste 0 -- -- 48
2019-06-22 09:00:00 20.2 0 Calma 8 Sur 0 -- -- 58
2019-06-22 08:00:00 15.4 0 Calma 13 Sudoeste 0 -- -- 80
2019-06-22 07:00:00 15.5 3 Noroeste 18 Sudoeste 0 -- -- 78
2019-06-22 06:00:00 15.4 0 Calma 12 Nordeste 0 -- -- 84
2019-06-22 05:00:00 15.8 0 Calma 12 Sudoeste 0 -- -- 86
2019-06-22 04:00:00 16 0 Calma 9 Sudoeste 0 -- -- 89
2019-06-22 03:00:00 15 0 Calma 14 Sudoeste 0 -- -- 90
2019-06-22 02:00:00 12 0 Calma -- -- 0 -- -- 86
2019-06-22 01:00:00 12.7 0 Calma -- -- 0 -- -- 84
2019-06-22 00:00:00 14.1 0 Calma 5 Sudeste 0 -- -- 86
2019-06-21 23:00:00 15.4 0 Calma -- -- 0 -- -- 86
2019-06-21 22:00:00 17.3 0 Calma 5 Sudoeste 0 -- -- 86
2019-06-21 21:00:00 18.5 0 Calma 8 Sudoeste 0 -- -- 84
2019-06-21 20:00:00 18.7 2 Sur 14 Sur 0 -- -- 87
2019-06-21 19:00:00 18.7 0 Calma 10 Sudeste 0 -- -- 87
2019-06-21 18:00:00 19.6 0 Calma 16 Este 0 -- -- 83
2019-06-21 17:00:00 22.3 0 Calma 15 Sudoeste 0 -- -- 68
2019-06-21 16:00:00 22.2 0 Calma 13 Oeste 0 -- -- 64
2019-06-21 15:00:00 22.2 3 Sudoeste 18 Nordeste 0 -- -- 64
2019-06-21 14:00:00 23.7 4 Este 16 Sudeste 0 -- -- 55
2019-06-21 13:00:00 23.6 5 Este 18 Este 0 -- -- 50
2019-06-21 12:00:00 20.9 4 Sudeste 18 Este 0 -- -- 68
2019-06-21 11:00:00 18.7 5 Sudeste 24 Sudeste 0 -- -- 82
2019-06-21 10:00:00 18.4 5 Este 20 Sudeste 0 -- -- 81
2019-06-21 09:00:00 18.1 6 Sudeste 23 Sur 0 -- -- 87
2019-06-21 08:00:00 17.8 5 Sudeste 19 Sudeste 0 -- -- 89
2019-06-21 07:00:00 16.9 6 Este 15 Este 0 -- -- 89
2019-06-21 06:00:00 16.2 5 Este 12 Este 0 -- -- 90
2019-06-21 05:00:00 14.5 0 Calma -- -- 0 -- -- 88
2019-06-21 04:00:00 15.4 0 Calma -- -- 0 -- -- 86
2019-06-21 03:00:00 16.6 0 Calma -- -- 0 -- -- 85
2019-06-21 02:00:00 17.7 2 Este 12 Este 0 -- -- 85
2019-06-21 01:00:00 17.4 0 Calma -- -- 0 -- -- 79
2019-06-21 00:00:00 19.3 0 Calma 16 Sur 0 -- -- 77
2019-06-20 23:00:00 19.5 3 Este 10 Sudeste 0 -- -- 75
2019-06-20 22:00:00 20.3 0 Calma 6 Sudeste 0 -- -- 70
2019-06-20 21:00:00 22.5 2 Sudeste 15 Sudeste 0 -- -- 59
2019-06-20 20:00:00 22.7 0 Calma 14 Sudeste 0 -- -- 63
2019-06-20 19:00:00 25 3 Sudeste 21 Este 0 -- -- 52
2019-06-20 18:00:00 25.8 8 Sudeste 23 Este 0 -- -- 51
2019-06-20 17:00:00 26.2 7 Sudeste 21 Sudeste 0 -- -- 53
2019-06-20 16:00:00 26.3 6 Sudeste 23 Este 0 -- -- 54
2019-06-20 15:00:00 25.9 9 Este 22 Sudeste 0 -- -- 50
2019-06-20 14:00:00 26.1 8 Sudeste 29 Sur 0 -- -- 39
2019-06-20 13:00:00 24.9 9 Sudeste 25 Sudeste 0 -- -- 42
2019-06-20 12:00:00 25.4 8 Sudeste 25 Sudeste 0 -- -- 46
2019-06-20 11:00:00 25.2 10 Sudeste 23 Sur 0 -- -- 42
2019-06-20 10:00:00 25.7 0 Calma 9 Este 0 -- -- 39
2019-06-20 09:00:00 19.8 0 Calma 6 Oeste 0 -- -- 64
2019-06-20 08:00:00 13.8 0 Calma -- -- 0 -- -- 77
2019-06-20 07:00:00 12.1 0 Calma 4 Sur 0 -- -- 78
2019-06-20 06:00:00 12.7 0 Calma 4 Sudeste 0 -- -- 78
2019-06-20 05:00:00 13.8 2 Este 10 Este 0 -- -- 78
2019-06-20 04:00:00 12.6 0 Calma -- -- 0 -- -- 67
2019-06-20 03:00:00 13.4 0 Calma 4 Sudeste 0 -- -- 64
2019-06-20 02:00:00 13.4 0 Calma -- -- 0 -- -- 66
2019-06-20 01:00:00 14.2 0 Calma -- -- 0 -- -- 69
2019-06-20 00:00:00 15.7 0 Calma -- -- 0 -- -- 71
2019-06-19 23:00:00 17.4 0 Calma 2 Sur 0 -- -- 61
2019-06-19 22:00:00 20.1 0 Calma 17 Sur 0 -- -- 54
2019-06-19 21:00:00 22 5 Sudeste 19 Sudeste 0 -- -- 55
2019-06-19 20:00:00 24.2 6 Este 19 Sudeste 0 -- -- 44
2019-06-19 19:00:00 24.9 7 Sudeste 25 Sudeste 0 -- -- 43
2019-06-19 18:00:00 25.3 8 Sudeste 24 Sudeste 0 -- -- 45
2019-06-19 17:00:00 26 8 Sudeste 22 Sudeste 0 -- -- 44
2019-06-19 16:00:00 27 8 Sur 23 Sudoeste 0 -- -- 44
2019-06-19 15:00:00 26.9 6 Sudeste 21 Sur 0 -- -- 44
2019-06-19 14:00:00 26.7 4 Sudeste 23 Sudeste 0 -- -- 43
2019-06-19 13:00:00 27.2 6 Sudeste 30 Nordeste 0 -- -- 40
2019-06-19 12:00:00 26.7 9 Este 46 Este 0 -- -- 34
2019-06-19 11:00:00 26.6 6 Sudeste 18 Sudeste 0 -- -- 32
2019-06-19 10:00:00 25.5 0 Calma 10 Sudeste 0 -- -- 30
2019-06-19 09:00:00 20.6 0 Calma 4 Sudoeste 0 -- -- 50
2019-06-19 08:00:00 13.2 0 Calma 6 Sudeste 0 -- -- 60
2019-06-19 07:00:00 11.6 0 Calma -- -- 0 -- -- 58
2019-06-19 06:00:00 11.3 0 Calma -- -- 0 -- -- 54
2019-06-19 05:00:00 12 0 Calma -- -- 0 -- -- 49
2019-06-19 04:00:00 13.5 0 Calma -- -- 0 -- -- 42
2019-06-19 03:00:00 15.6 0 Calma -- -- 0 -- -- 33
2019-06-19 02:00:00 18.9 0 Calma 24 Este 0 -- -- 25
2019-06-19 01:00:00 21.7 6 Sudeste 24 Sur 0 -- -- 21
2019-06-19 00:00:00 22 5 Sudeste 24 Sur 0 -- -- 21
2019-06-18 23:00:00 21.7 5 Sudeste 24 Sur 0 -- -- 22
2019-06-18 22:00:00 21.7 6 Sur 25 Sudeste 0 -- -- 23
2019-06-18 21:00:00 22 10 Sur 31 Sur 0 -- -- 29
2019-06-18 20:00:00 23.2 6 Sudoeste 26 Sudoeste 0 -- -- 29
2019-06-18 19:00:00 24.6 5 Sudeste 24 Este 0 -- -- 28
2019-06-18 18:00:00 25.4 6 Sur 27 Sur 0 -- -- 28
2019-06-18 17:00:00 26.2 5 Sur 24 Sudoeste 0 -- -- 27
2019-06-18 16:00:00 26.9 5 Sur 25 Sudeste 0 -- -- 26
2019-06-18 15:00:00 27 8 Sudeste 25 Este 0 -- -- 26
2019-06-18 14:00:00 27.2 5 Sudeste 27 Sudeste 0 -- -- 25
2019-06-18 13:00:00 26.5 7 Sudeste 24 Sudeste 0 -- -- 26
2019-06-18 12:00:00 25.5 7 Este 24 Este 0 -- -- 28
2019-06-18 11:00:00 24.8 9 Este 26 Este 0 -- -- 31
2019-06-18 10:00:00 23.8 5 Sudeste 15 Sudeste 0 -- -- 36
2019-06-18 09:00:00 19.8 0 Calma 6 Noroeste 0 -- -- 52
2019-06-18 08:00:00 11.4 0 Calma -- -- 0 -- -- 87
2019-06-18 07:00:00 10.1 0 Calma 3 Sudeste 0 -- -- 87
2019-06-18 06:00:00 10.1 0 Calma -- -- 0 -- -- 86
2019-06-18 05:00:00 10.3 0 Calma -- -- 0 -- -- 83
2019-06-18 04:00:00 10.9 0 Calma 4 Sur 0 -- -- 81
2019-06-18 03:00:00 11.1 0 Calma 6 Sur 0 -- -- 82
2019-06-18 02:00:00 12 0 Calma -- -- 0 -- -- 79
2019-06-18 01:00:00 13 0 Calma -- -- 0 -- -- 77
2019-06-18 00:00:00 14.4 0 Calma -- -- 0 -- -- 71
2019-06-17 23:00:00 16.3 0 Calma 6 Este 0 -- -- 64
2019-06-17 22:00:00 18.3 0 Calma 9 Sudoeste 0 -- -- 58
2019-06-17 21:00:00 20.3 2 Sudeste 13 Este 0 -- -- 50
2019-06-17 20:00:00 21.3 2 Sudoeste 13 Sudeste 0 -- -- 43
2019-06-17 19:00:00 22.9 5 Sudeste 17 Sudoeste 0 -- -- 38
2019-06-17 18:00:00 23.8 6 Sudeste 20 Sur 0 -- -- 36
2019-06-17 17:00:00 24.9 4 Sudeste 19 Sur 0 -- -- 34
2019-06-17 16:00:00 24.9 5 Sudeste 20 Sudoeste 0 -- -- 33
2019-06-17 15:00:00 25.4 0 Calma 21 Sudoeste 0 -- -- 33
2019-06-17 14:00:00 26.2 3 Sur 16 Sur 0 -- -- 30
2019-06-17 13:00:00 26.3 3 Sudeste 15 Sudeste 0 -- -- 30
2019-06-17 12:00:00 26.5 0 Calma 11 Sur 0 -- -- 26
2019-06-17 11:00:00 26.1 3 Oeste 10 Noroeste 0 -- -- 28
2019-06-17 10:00:00 22.9 0 Calma 8 Sudoeste 0 -- -- 42
2019-06-17 09:00:00 18 0 Calma -- -- 0 -- -- 75
2019-06-17 08:00:00 11.7 0 Calma -- -- 0 -- -- 90
2019-06-17 07:00:00 10.7 0 Calma -- -- 0 -- -- 88
2019-06-17 06:00:00 11.2 0 Calma -- -- 0 -- -- 88
2019-06-17 05:00:00 11.6 0 Calma -- -- 0 -- -- 87
2019-06-17 04:00:00 12.2 0 Calma -- -- 0 -- -- 86
2019-06-17 03:00:00 12.6 0 Calma -- -- 0 -- -- 84
2019-06-17 02:00:00 12.8 0 Calma -- -- 0 -- -- 80
2019-06-17 01:00:00 13.6 0 Calma -- -- 0 -- -- 76
2019-06-17 00:00:00 13.9 0 Calma -- -- 0 -- -- 71
2019-06-16 23:00:00 14.8 0 Calma 6 Este 0 -- -- 65
2019-06-16 22:00:00 16.1 0 Calma 6 Este 0 -- -- 63
2019-06-16 21:00:00 18.4 0 Calma 6 Sudeste 0 -- -- 52
2019-06-16 20:00:00 19.8 2 Sudeste 14 Sudeste 0 -- -- 42
2019-06-16 19:00:00 20.6 2 Este 10 Sudeste 0 -- -- 41
2019-06-16 18:00:00 20.9 4 Sudeste 19 Sur 0 -- -- 41
2019-06-16 17:00:00 21.8 5 Sudeste 19 Sudeste 0 -- -- 39
2019-06-16 16:00:00 21.6 5 Sudeste 17 Sudeste 0 -- -- 40
2019-06-16 15:00:00 22.7 3 Sudeste 15 Sur 0 -- -- 38
2019-06-16 14:00:00 23 4 Sudeste 22 Oeste 0 -- -- 35
2019-06-16 13:00:00 22.4 4 Sudoeste 25 Sudoeste 0 -- -- 40
2019-06-16 12:00:00 22.1 4 Sudoeste 20 Nordeste 0 -- -- 46
2019-06-16 11:00:00 20.4 2 Sudoeste 18 Noroeste 0 -- -- 49
2019-06-16 10:00:00 19.6 2 Sur 13 Norte 0 -- -- 54
2019-06-16 09:00:00 17.8 2 Norte 8 Noroeste 0 -- -- 63
2019-06-16 08:00:00 11.1 0 Calma -- -- 0 -- -- 89
2019-06-16 07:00:00 9.8 0 Calma -- -- 0 -- -- 89
2019-06-16 06:00:00 10 0 Calma 4 Este 0 -- -- 89
2019-06-16 05:00:00 10.3 0 Calma 5 Nordeste 0 -- -- 89
2019-06-16 04:00:00 10.3 0 Calma -- -- 0 -- -- 89
2019-06-16 03:00:00 11 0 Calma -- -- 0 -- -- 89
2019-06-16 02:00:00 11.4 0 Calma -- -- 0 -- -- 87
2019-06-16 01:00:00 11.6 0 Calma 2 Sur 0 -- -- 83
2019-06-16 00:00:00 12.2 0 Calma 4 Oeste 0 -- -- 78
2019-06-15 23:00:00 13.7 0 Calma -- -- 0 -- -- 71
2019-06-15 22:00:00 15.7 0 Calma 2 Nordeste 0 -- -- 68
2019-06-15 21:00:00 18.2 0 Calma 8 Sudoeste 0 -- -- 60
2019-06-15 20:00:00 19.9 0 Calma 12 Sudoeste 0 -- -- 51
2019-06-15 19:00:00 21.9 0 Calma 11 Sur 0 -- -- 49
2019-06-15 18:00:00 22.9 4 Sudeste 15 Sur 0 -- -- 52
2019-06-15 17:00:00 22.3 2 Sudeste 13 Sur 0 -- -- 61
2019-06-15 16:00:00 22 2 Oeste 12 Sudoeste 0 -- -- 63
2019-06-15 15:00:00 23 0 Calma 16 Este 0 -- -- 56
2019-06-15 14:00:00 24.6 3 Sur 14 Sudoeste 0 -- -- 48
2019-06-15 13:00:00 24.6 3 Sudoeste 14 Sur 0 -- -- 47
2019-06-15 12:00:00 24.8 0 Calma 11 Este 0 -- -- 42
2019-06-15 11:00:00 24 0 Calma 11 Este 0 -- -- 44
2019-06-15 10:00:00 21.6 3 Sudeste 11 Este 0 -- -- 47
2019-06-15 09:00:00 19.9 0 Calma 7 Oeste 0 -- -- 58
2019-06-15 08:00:00 10.8 0 Calma -- -- 0 -- -- 83
2019-06-15 07:00:00 9.5 0 Calma -- -- 0 -- -- 74
2019-06-15 06:00:00 9.9 0 Calma -- -- 0 -- -- 68
2019-06-15 05:00:00 11.4 0 Calma 8 Sur 0 -- -- 70
2019-06-15 04:00:00 12.6 0 Calma 5 Sudoeste 0 -- -- 73
2019-06-15 03:00:00 12.7 0 Calma -- -- 0 -- -- 74
2019-06-15 02:00:00 13.7 0 Calma -- -- 0 -- -- 71
2019-06-15 01:00:00 15.2 0 Calma 6 Nordeste 0 -- -- 65
2019-06-15 00:00:00 16.4 0 Calma -- -- 0 -- -- 60
2019-06-14 23:00:00 19.7 0 Calma 33 Sudoeste 0 -- -- 46
2019-06-14 22:00:00 21.3 14 Sudoeste 32 Sudoeste 0 -- -- 41
2019-06-14 21:00:00 19.3 0 Calma 23 Sur 0 -- -- 52
2019-06-14 20:00:00 20.8 7 Sur 24 Sur 0 -- -- 48
2019-06-14 19:00:00 20.9 0 Calma 11 Sudoeste 0 -- -- 49
2019-06-14 18:00:00 20.8 0 Calma 16 Sur 0 -- -- 54
2019-06-14 17:00:00 21.6 3 Sudeste 17 Este 0 -- -- 57
2019-06-14 16:00:00 21.1 0 Calma 19 Sudeste 0 -- -- 61
2019-06-14 15:00:00 20.3 6 Sudeste 29 Nordeste 0 -- -- 65
2019-06-14 14:00:00 18.6 4 Sudeste 25 Sudeste 0 -- -- 76
2019-06-14 13:00:00 18.3 7 Sudeste 31 Sudeste 0 -- -- 78
2019-06-14 12:00:00 17.1 6 Sudeste 30 Sudeste 0 -- -- 86
2019-06-14 11:00:00 17.8 6 Sudeste 26 Este 0 -- -- 83
2019-06-14 10:00:00 18.4 0 Calma 23 Nordeste 0 -- -- 81
2019-06-14 09:00:00 17.9 3 Este 13 Sur 0 -- -- 87
2019-06-14 08:00:00 17 3 Este 18 Sudeste 0 -- -- 89
2019-06-14 07:00:00 16.6 0 Calma 8 Noroeste 0 -- -- 88
2019-06-14 06:00:00 17.2 0 Calma 22 Sudoeste 0 -- -- 85
2019-06-14 05:00:00 17.8 8 Sudeste 24 Sudeste 0 -- -- 84
2019-06-14 04:00:00 17.6 8 Sur 22 Sudoeste 0 -- -- 82
2019-06-14 03:00:00 17.7 7 Sur 29 Sudeste 0 -- -- 79
2019-06-14 02:00:00 18 9 Sur 26 Sur 0 -- -- 74
2019-06-14 01:00:00 17.8 9 Sudeste 27 Sur 0 -- -- 78
2019-06-14 00:00:00 17.2 10 Sur 30 Sur 0 -- -- 85
2019-06-13 23:00:00 17.3 8 Sur 25 Sur 0 -- -- 85
2019-06-13 22:00:00 16.8 10 Sudeste 31 Sudoeste 0 -- -- 86
2019-06-13 21:00:00 17 8 Sur 31 Sur 0 -- -- 82
2019-06-13 20:00:00 17.6 9 Sur 32 Sudeste 0 -- -- 75
2019-06-13 19:00:00 18.7 8 Sudeste 26 Sudeste 0 -- -- 66
2019-06-13 18:00:00 19.4 11 Este 28 Este 0 -- -- 58
2019-06-13 17:00:00 20.1 10 Este 28 Este 0 -- -- 48
2019-06-13 16:00:00 20.4 8 Este 28 Este 0 -- -- 47
2019-06-13 15:00:00 21.1 7 Sudeste 23 Este 0 -- -- 44
2019-06-13 14:00:00 20.7 8 Este 28 Este 0 -- -- 46
2019-06-13 13:00:00 20.9 4 Sudeste 23 Este 0 -- -- 46
2019-06-13 12:00:00 19.2 8 Este 25 Este 0 -- -- 50
2019-06-13 11:00:00 18.8 7 Sur 23 Sur 0 -- -- 50
2019-06-13 10:00:00 18.5 7 Sur 21 Sudoeste 0 -- -- 44
2019-06-13 09:00:00 17.4 4 Sur 27 Sur 0 -- -- 52
2019-06-13 08:00:00 14.3 0 Calma 19 Sudeste 0 -- -- 62
2019-06-13 07:00:00 13.2 4 Sudeste 14 Sur 0 -- -- 58
2019-06-13 06:00:00 11.8 0 Calma 12 Sudeste 0 -- -- 76
2019-06-13 05:00:00 12.3 2 Este 10 Este 0 -- -- 76
2019-06-13 04:00:00 12.2 5 Este 9 Este 0 -- -- 78
2019-06-13 03:00:00 11.5 4 Este 11 Este 0 -- -- 83
2019-06-13 02:00:00 12 3 Sudeste 10 Este 0 -- -- 80
2019-06-13 01:00:00 12 0 Calma 10 Sur 0 -- -- 83
2019-06-13 00:00:00 12.5 0 Calma 13 Sudeste 0 -- -- 83
2019-06-12 23:00:00 13.5 5 Sudeste 15 Sur 0 -- -- 79
2019-06-12 22:00:00 14.4 6 Sur 17 Sur 0 -- -- 73
2019-06-12 21:00:00 15.3 5 Sudeste 15 Sudeste 0 -- -- 67
2019-06-12 20:00:00 16.2 6 Sur 19 Sur 0 -- -- 63
2019-06-12 19:00:00 16.5 4 Sur 21 Sudoeste 0 -- -- 60
2019-06-12 18:00:00 17.2 4 Sudeste 19 Sur 0 -- -- 56
2019-06-12 17:00:00 17.8 7 Sudeste 20 Sudeste 0 -- -- 55
2019-06-12 16:00:00 17.7 8 Sur 18 Sur 0 -- -- 56
2019-06-12 15:00:00 16.6 3 Este 16 Este 0 -- -- 61
2019-06-12 14:00:00 16 3 Este 14 Sudeste 0 -- -- 64
2019-06-12 13:00:00 16.4 2 Oeste 17 Este 0 -- -- 61
2019-06-12 12:00:00 17 6 Este 13 Este 0 -- -- 59
2019-06-12 11:00:00 14.3 4 Sudeste 14 Sudeste 0 -- -- 68
2019-06-12 10:00:00 13.7 5 Sudeste 14 Sur 0 -- -- 71
2019-06-12 09:00:00 14.1 0 Calma 6 Oeste 0 -- -- 78
2019-06-12 08:00:00 12.4 0 Calma 11 Sudoeste 0 -- -- 88
2019-06-12 07:00:00 11.6 0 Calma 8 Oeste 0 -- -- 89
2019-06-12 06:00:00 11.6 0 Calma 11 Oeste 0 -- -- 89
2019-06-12 05:00:00 11.6 0 Calma 10 Oeste 0 -- -- 89
2019-06-12 04:00:00 11.6 0 Calma -- -- 0 -- -- 89
2019-06-12 03:00:00 11.8 0 Calma 11 Oeste 0.2 -- -- 89
2019-06-12 02:00:00 11.8 0 Calma 13 Este 0.1 -- -- 89
2019-06-12 01:00:00 11.6 0 Calma 14 Este 0 -- -- 89
2019-06-12 00:00:00 12.1 2 Este 13 Nordeste 0 -- -- 89
2019-06-11 23:00:00 12.4 3 Sudeste 20 Este 0.2 -- -- 89
2019-06-11 22:00:00 13.1 3 Sudeste 16 Nordeste 0.2 -- -- 89
2019-06-11 21:00:00 13.7 4 Sudeste 17 Nordeste 0 -- -- 89
2019-06-11 20:00:00 14.7 3 Sudeste 19 Nordeste 0.1 -- -- 89
2019-06-11 19:00:00 16.4 0 Calma 12 Sudeste 0 -- -- 81
2019-06-11 18:00:00 18.4 0 Calma 17 Sur 0 -- -- 69
2019-06-11 17:00:00 19 0 Calma 16 Este 0 -- -- 66
2019-06-11 16:00:00 19.6 4 Sudeste 27 Sudoeste 0 -- -- 58
2019-06-11 15:00:00 21 10 Sudoeste 32 Sudoeste 0 -- -- 51
2019-06-11 14:00:00 20 6 Sudeste 25 Sudeste 0 -- -- 56
2019-06-11 13:00:00 19.1 3 Sudeste 25 Sudeste 0 -- -- 60
2019-06-11 12:00:00 18.1 5 Sudeste 20 Sudeste 0 -- -- 63
2019-06-11 11:00:00 17 6 Este 22 Este 0 -- -- 70
2019-06-11 10:00:00 17.6 6 Este 24 Sudeste 0 -- -- 67
2019-06-11 09:00:00 15.8 9 Sudeste 20 Sudeste 0 -- -- 79
2019-06-11 08:00:00 15.2 6 Sudeste 19 Sudeste 0 -- -- 86
2019-06-11 07:00:00 14.4 7 Sudeste 23 Sur 0 -- -- 89
2019-06-11 06:00:00 14.1 6 Sudeste 17 Sudeste 0 -- -- 89
2019-06-11 05:00:00 12.9 0 Calma 5 Sudeste 0 -- -- 87
2019-06-11 04:00:00 13.5 0 Calma -- -- 0 -- -- 83
2019-06-11 03:00:00 14.8 0 Calma 13 Este 0 -- -- 83
2019-06-11 02:00:00 15.1 4 Sudeste 14 Sudeste 0 -- -- 78
2019-06-11 01:00:00 15.6 6 Sudeste 19 Sur 0 -- -- 67
2019-06-11 00:00:00 15.9 7 Sur 19 Sudeste 0 -- -- 62
2019-06-10 23:00:00 15.9 7 Sudeste 21 Sudeste 0 -- -- 60
2019-06-10 22:00:00 16.5 7 Sudeste 19 Sur 0 -- -- 58
2019-06-10 21:00:00 17.5 6 Sudeste 17 Sudeste 0 -- -- 54
2019-06-10 20:00:00 18.6 6 Sudeste 23 Sur 0 -- -- 50
2019-06-10 19:00:00 20 5 Sudeste 19 Sudoeste 0 -- -- 46
2019-06-10 18:00:00 20.9 4 Este 18 Este 0 -- -- 45
2019-06-10 17:00:00 22.4 4 Sur 19 Sur 0 -- -- 45
2019-06-10 16:00:00 21.8 4 Sudoeste 19 Nordeste 0 -- -- 48
2019-06-10 15:00:00 22.4 3 Sudeste 21 Este 0 -- -- 46
2019-06-10 14:00:00 21.7 3 Sudeste 21 Nordeste 0 -- -- 47
2019-06-10 13:00:00 21.5 3 Este 15 Nordeste 0 -- -- 51
2019-06-10 12:00:00 19.9 3 Sudoeste 17 Oeste 0 -- -- 57
2019-06-10 11:00:00 18.1 2 Sur 17 Oeste 0 -- -- 66
2019-06-10 10:00:00 16.9 0 Calma 21 Oeste 0 -- -- 72
2019-06-10 09:00:00 17.7 2 Sudeste 17 Este 0 -- -- 67
2019-06-10 08:00:00 16.7 4 Sur 20 Oeste 0 -- -- 73
2019-06-10 07:00:00 15.4 4 Sudoeste 18 Sudoeste 0 -- -- 74
2019-06-10 06:00:00 15.5 3 Sudoeste 19 Sudoeste 0 -- -- 73
2019-06-10 05:00:00 15.2 0 Calma 12 Sudeste 0 -- -- 83
2019-06-10 04:00:00 14.4 0 Calma 6 Sur 0 -- -- 89
2019-06-10 03:00:00 15 0 Calma 7 Sudeste 0 -- -- 89
2019-06-10 02:00:00 15.5 0 Calma 6 Sur 0 -- -- 89
2019-06-10 01:00:00 15.2 0 Calma 6 Noroeste 0 -- -- 88
2019-06-10 00:00:00 15.9 0 Calma 6 Este 0 -- -- 88
2019-06-09 23:00:00 16.4 0 Calma 6 Este 0 -- -- 87
2019-06-09 22:00:00 18 0 Calma 7 Norte 0 -- -- 78
2019-06-09 21:00:00 19.5 0 Calma 8 Sur 0 -- -- 71
2019-06-09 20:00:00 19.4 2 Noroeste 8 Noroeste 0 -- -- 69
2019-06-09 19:00:00 21.3 0 Calma 10 Oeste 0 -- -- 57
2019-06-09 18:00:00 22.3 3 Oeste 11 Noroeste 0 -- -- 58
2019-06-09 17:00:00 21.6 0 Calma 11 Oeste 0 -- -- 57
2019-06-09 16:00:00 22.5 3 Este 16 Este 0 -- -- 52
2019-06-09 15:00:00 24.4 3 Sur 13 Sudoeste 0 -- -- 44
2019-06-09 14:00:00 21.7 4 Este 16 Este 0 -- -- 51
2019-06-09 13:00:00 21.8 2 Sudeste 13 Sudeste 0 -- -- 54
2019-06-09 12:00:00 23.2 2 Oeste 13 Este 0 -- -- 51
2019-06-09 11:00:00 21.8 3 Sur 13 Sudeste 0 -- -- 51
2019-06-09 10:00:00 23.2 0 Calma 9 Sur 0 -- -- 48
2019-06-09 09:00:00 20.8 3 Este 31 Sudeste 0 -- -- 52
2019-06-09 08:00:00 18.5 11 Sudeste 30 Este 0 -- -- 63
2019-06-09 07:00:00 18.4 5 Sudeste 18 Sur 0 -- -- 59
2019-06-09 06:00:00 18.3 3 Este 27 Sur 0 -- -- 54
2019-06-09 05:00:00 18.1 10 Sur 29 Sudeste 0 -- -- 48
2019-06-09 04:00:00 19 12 Sur 30 Sur 0 -- -- 38
2019-06-09 03:00:00 19.1 11 Sur 30 Sur 0 -- -- 37
2019-06-09 02:00:00 18.5 12 Sudeste 35 Sudeste 0 -- -- 39
2019-06-09 01:00:00 19.7 8 Sur 33 Sudoeste 0 -- -- 35
2019-06-09 00:00:00 18.1 9 Sudeste 29 Sudeste 0 -- -- 39
2019-06-08 23:00:00 17.9 9 Sudeste 33 Sur 0 -- -- 35
2019-06-08 22:00:00 18.3 5 Sur 21 Sur 0 -- -- 37
2019-06-08 21:00:00 18.2 5 Sudeste 23 Sudeste 0 -- -- 37
2019-06-08 20:00:00 18.9 7 Sur 21 Sudoeste 0 -- -- 36
2019-06-08 19:00:00 19 9 Sur 24 Sudeste 0 -- -- 35
2019-06-08 18:00:00 19.3 8 Sur 29 Sudoeste 0 -- -- 31
2019-06-08 17:00:00 19.5 8 Sur 24 Este 0 -- -- 31
2019-06-08 16:00:00 19.2 7 Sudeste 24 Este 0 -- -- 32
2019-06-08 15:00:00 19.2 6 Este 31 Sudeste 0 -- -- 34
2019-06-08 14:00:00 19 8 Sur 33 Sudeste 0 -- -- 37
2019-06-08 13:00:00 19.2 8 Sur 32 Sudoeste 0 -- -- 38
2019-06-08 12:00:00 18.8 10 Sur 32 Sur 0 -- -- 41
2019-06-08 11:00:00 19.5 6 Sur 30 Sur 0 -- -- 44
2019-06-08 10:00:00 18.4 6 Sudoeste 26 Sur 0 -- -- 48
2019-06-08 09:00:00 16.2 0 Calma 13 Sudeste 0 -- -- 59
2019-06-08 08:00:00 14.3 0 Calma 15 Noroeste 0 -- -- 72
2019-06-08 07:00:00 14.2 4 Norte 20 Norte 0 -- -- 70
2019-06-08 06:00:00 13.8 3 Sudoeste 25 Noroeste 0 -- -- 71
2019-06-08 05:00:00 14 4 Oeste 23 Sudoeste 0 -- -- 78
2019-06-08 04:00:00 13.5 0 Calma 9 Oeste 0 -- -- 83
2019-06-08 03:00:00 14.7 4 Oeste 11 Sur 0 -- -- 81
2019-06-08 02:00:00 15.4 0 Calma 19 Sudoeste 0 -- -- 83
2019-06-08 01:00:00 12.9 0 Calma -- -- 0 -- -- 82
2019-06-08 00:00:00 14.3 0 Calma 7 Este 0 -- -- 76
2019-06-07 23:00:00 14.7 0 Calma 8 Este 0 -- -- 71
2019-06-07 22:00:00 15.4 0 Calma -- -- 0 -- -- 66
2019-06-07 21:00:00 17.8 0 Calma 5 Sudoeste 0 -- -- 58
2019-06-07 20:00:00 19.4 0 Calma 10 Sudeste 0 -- -- 50
2019-06-07 19:00:00 20.5 2 Sudeste 12 Noroeste 0 -- -- 48
2019-06-07 18:00:00 21.8 2 Oeste 17 Sudoeste 0 -- -- 46
2019-06-07 17:00:00 22.3 3 Oeste 15 Sudeste 0 -- -- 46
2019-06-07 16:00:00 22 6 Este 23 Sur 0 -- -- 40
2019-06-07 15:00:00 24.8 4 Sudeste 16 Sudeste 0 -- -- 35
2019-06-07 14:00:00 23.8 3 Este 13 Nordeste 0 -- -- 40
2019-06-07 13:00:00 24.5 4 Sudeste 15 Sudeste 0 -- -- 39
2019-06-07 12:00:00 24.1 2 Sur 13 Sudeste 0 -- -- 39
2019-06-07 11:00:00 21.5 4 Este 12 Este 0 -- -- 59
2019-06-07 10:00:00 21 0 Calma 13 Sudeste 0 -- -- 62
2019-06-07 09:00:00 20.1 2 Sur 10 Sudoeste 0 -- -- 48
2019-06-07 08:00:00 13.8 0 Calma 8 Este 0 -- -- 71
2019-06-07 07:00:00 12.8 0 Calma 6 Este 0 -- -- 68
2019-06-07 06:00:00 13.5 0 Calma 5 Sur 0 -- -- 59
2019-06-07 05:00:00 16.3 0 Calma 35 Sudoeste 0 -- -- 45
2019-06-07 04:00:00 17.6 10 Sur 45 Sur 0 -- -- 39
2019-06-07 03:00:00 17.6 14 Sur 40 Sur 0 -- -- 45
2019-06-07 02:00:00 17.3 12 Sur 37 Sur 0 -- -- 45
2019-06-07 01:00:00 17.5 15 Sur 37 Sur 0 -- -- 46
2019-06-07 00:00:00 16.5 12 Sur 35 Sur 0 -- -- 54
2019-06-06 23:00:00 16.3 12 Sur 38 Sur 0 -- -- 66
2019-06-06 22:00:00 16.9 12 Sur 35 Sudoeste 0 -- -- 63
2019-06-06 21:00:00 17.2 7 Sur 27 Sur 0 -- -- 71
2019-06-06 20:00:00 18.6 8 Sudeste 28 Nordeste 0 -- -- 60
2019-06-06 19:00:00 19.4 9 Sudeste 30 Sudeste 0 -- -- 48
2019-06-06 18:00:00 20.6 10 Sudeste 36 Sudeste 0 -- -- 45
2019-06-06 17:00:00 21.5 8 Sudeste 23 Sur 0 -- -- 42
2019-06-06 16:00:00 21.1 6 Sudeste 26 Sudeste 0 -- -- 43
2019-06-06 15:00:00 21.9 8 Sudeste 24 Sudeste 0 -- -- 43
2019-06-06 14:00:00 21.6 4 Sur 28 Sudeste 0 -- -- 43
2019-06-06 13:00:00 22.1 5 Sudeste 22 Este 0 -- -- 41
2019-06-06 12:00:00 20.8 5 Sudeste 25 Sudeste 0 -- -- 42
2019-06-06 11:00:00 20 7 Sudeste 23 Nordeste 0 -- -- 49
2019-06-06 10:00:00 18.3 7 Este 19 Sudeste 0 -- -- 54
2019-06-06 09:00:00 16.5 5 Sudeste 17 Sudeste 0 -- -- 67
2019-06-06 08:00:00 13.2 2 Este 15 Sudeste 0 -- -- 85
2019-06-06 07:00:00 12.7 2 Sudeste 12 Este 0 -- -- 88
2019-06-06 06:00:00 11.8 2 Este 8 Este 0 -- -- 86
2019-06-06 05:00:00 12.2 0 Calma 6 Este 0 -- -- 83
2019-06-06 04:00:00 11.4 0 Calma 3 Sudoeste 0 -- -- 75
2019-06-06 03:00:00 11.7 0 Calma -- -- 0 -- -- 71
2019-06-06 02:00:00 12.5 0 Calma -- -- 0 -- -- 67
2019-06-06 01:00:00 12.7 0 Calma -- -- 0 -- -- 65
2019-06-06 00:00:00 13.2 0 Calma -- -- 0 -- -- 63
2019-06-05 23:00:00 13.9 0 Calma 6 Sudeste 0 -- -- 60
2019-06-05 22:00:00 14.6 0 Calma 15 Sudoeste 0 -- -- 59
2019-06-05 21:00:00 16.1 3 Sudoeste 15 Sur 0 -- -- 58
2019-06-05 20:00:00 17.8 5 Sudeste 17 Sudeste 0 -- -- 62
2019-06-05 19:00:00 18.5 5 Sudeste 26 Sur 0 -- -- 52
2019-06-05 18:00:00 20.1 6 Sudeste 30 Sur 0 -- -- 34
2019-06-05 17:00:00 21.6 5 Sudeste 40 Sudoeste 0 -- -- 28
2019-06-05 16:00:00 22.8 4 Sudoeste 25 Sudoeste 0 -- -- 31
2019-06-05 15:00:00 23.5 4 Este 22 Este 0 -- -- 42
2019-06-05 14:00:00 24.9 7 Sudeste 24 Este 0 -- -- 42
2019-06-05 13:00:00 22.8 3 Sudeste 25 Este 0 -- -- 61
2019-06-05 12:00:00 24 2 Sur 27 Sur 0 -- -- 47
2019-06-05 11:00:00 24.4 14 Sur 40 Sudoeste 0 -- -- 38
2019-06-05 10:00:00 24.6 12 Sur 37 Sudoeste 0 -- -- 28
2019-06-05 09:00:00 21.8 0 Calma 9 Oeste 0 -- -- 41
2019-06-05 08:00:00 17 3 Noroeste 10 Sudoeste 0 -- -- 48
2019-06-05 07:00:00 14.5 3 Sudoeste 12 Sudoeste 0 -- -- 51
2019-06-05 06:00:00 15.8 0 Calma 18 Sur 0 -- -- 41
2019-06-05 05:00:00 20.3 8 Sur 30 Sur 0 -- -- 31
2019-06-05 04:00:00 20.8 14 Sur 32 Sudeste 0 -- -- 32
2019-06-05 03:00:00 20.2 9 Sur 27 Sur 0 -- -- 33
2019-06-05 02:00:00 15.1 0 Calma 9 Noroeste 0 -- -- 41
2019-06-05 01:00:00 18.5 0 Calma 22 Sur 0 -- -- 32
2019-06-05 00:00:00 19.6 5 Sudeste 22 Sur 0 -- -- 33
2019-06-04 23:00:00 19 7 Sudeste 24 Sur 0 -- -- 43
2019-06-04 22:00:00 19.4 6 Sudeste 26 Sur 0 -- -- 45
2019-06-04 21:00:00 20.7 9 Sur 33 Sudoeste 0 -- -- 43
2019-06-04 20:00:00 22.5 8 Sudeste 30 Sudeste 0 -- -- 36
2019-06-04 19:00:00 24 6 Sudeste 25 Sur 0 -- -- 32
2019-06-04 18:00:00 25.3 10 Sudeste 31 Este 0 -- -- 29
2019-06-04 17:00:00 25.8 9 Este 28 Sudeste 0 -- -- 29
2019-06-04 16:00:00 26.1 10 Sudeste 28 Sudeste 0 -- -- 29
2019-06-04 15:00:00 26.4 10 Sudeste 30 Sudeste 0 -- -- 30
2019-06-04 14:00:00 26.3 8 Sudeste 27 Sudeste 0 -- -- 31
2019-06-04 13:00:00 25.7 8 Sudeste 26 Sur 0 -- -- 31
2019-06-04 12:00:00 25.2 9 Sur 28 Sudeste 0 -- -- 31
2019-06-04 11:00:00 24.5 8 Sudeste 26 Sudeste 0 -- -- 32
2019-06-04 10:00:00 23 9 Sudeste 24 Sudeste 0 -- -- 35
2019-06-04 09:00:00 22 8 Sudeste 27 Este 0 -- -- 36
2019-06-04 08:00:00 18.8 6 Este 26 Sudeste 0 -- -- 43
2019-06-04 07:00:00 14.9 2 Sudeste 22 Sur 0 -- -- 54
2019-06-04 06:00:00 11.1 0 Calma 0 Calma 0 -- -- 57
2019-06-04 05:00:00 12 0 Calma -- -- 0 -- -- 54
2019-06-04 04:00:00 12.7 0 Calma 5 Sur 0 -- -- 48
2019-06-04 03:00:00 13.4 0 Calma -- -- 0 -- -- 44
2019-06-04 02:00:00 15 0 Calma 4 Oeste 0 -- -- 40
2019-06-04 01:00:00 18.6 0 Calma 27 Sudeste 0 -- -- 30
2019-06-04 00:00:00 18.6 6 Este 18 Sudeste 0 -- -- 33
2019-06-03 23:00:00 18.4 6 Sudeste 21 Sudeste 0 -- -- 36
2019-06-03 22:00:00 18.8 6 Sudeste 14 Sudeste 0 -- -- 38
2019-06-03 21:00:00 20 5 Sudeste 23 Sur 0 -- -- 35
2019-06-03 20:00:00 21.2 4 Sur 22 Sudoeste 0 -- -- 34
2019-06-03 19:00:00 22.7 4 Sur 23 Sudoeste 0 -- -- 32
2019-06-03 18:00:00 23.8 4 Sudeste 24 Sur 0 -- -- 29
2019-06-03 17:00:00 24.5 6 Sur 25 Sur 0 -- -- 29
2019-06-03 16:00:00 25.4 6 Sudoeste 22 Sur 0 -- -- 29
2019-06-03 15:00:00 25.9 5 Sudeste 27 Sur 0 -- -- 28
2019-06-03 14:00:00 25.7 7 Sudeste 22 Sur 0 -- -- 26
2019-06-03 13:00:00 25.3 6 Sudeste 24 Este 0 -- -- 27
2019-06-03 12:00:00 24.7 6 Este 20 Sudeste 0 -- -- 26
2019-06-03 11:00:00 23.9 7 Este 21 Sudeste 0 -- -- 30
2019-06-03 10:00:00 22.6 0 Calma 13 Sudeste 0 -- -- 35
2019-06-03 09:00:00 19 0 Calma 9 Noroeste 0 -- -- 48
2019-06-03 08:00:00 10.4 0 Calma -- -- 0 -- -- 81
2019-06-03 07:00:00 8.5 0 Calma -- -- 0 -- -- 81
2019-06-03 06:00:00 8.6 0 Calma 3 Sudoeste 0 -- -- 79
2019-06-03 05:00:00 9.3 0 Calma 6 Sur 0 -- -- 76
2019-06-03 04:00:00 10.1 0 Calma 7 Sur 0 -- -- 74
2019-06-03 03:00:00 10.5 0 Calma 4 Sur 0 -- -- 70
2019-06-03 02:00:00 11.7 0 Calma -- -- 0 -- -- 63
2019-06-03 01:00:00 13.2 0 Calma 5 Este 0 -- -- 54
2019-06-03 00:00:00 15.6 0 Calma 9 Sudeste 0 -- -- 45
2019-06-02 23:00:00 17 0 Calma 18 Sudeste 0 -- -- 40
2019-06-02 22:00:00 17.6 2 Sudeste 13 Sur 0 -- -- 39
2019-06-02 21:00:00 19.4 6 Sudeste 19 Sudeste 0 -- -- 35
2019-06-02 20:00:00 20.9 4 Sur 20 Sudoeste 0 -- -- 34
2019-06-02 19:00:00 22.3 6 Sudeste 21 Sudeste 0 -- -- 32
2019-06-02 18:00:00 23 4 Sudeste 23 Sur 0 -- -- 35
2019-06-02 17:00:00 23.5 4 Sudeste 22 Sur 0 -- -- 35
2019-06-02 16:00:00 23.7 2 Nordeste 14 Este 0 -- -- 29
2019-06-02 15:00:00 24 3 Sur 14 Este 0 -- -- 27
2019-06-02 14:00:00 24.2 3 Sudoeste 17 Oeste 0 -- -- 27
2019-06-02 13:00:00 23.8 5 Este 17 Este 0 -- -- 26
2019-06-02 12:00:00 23.4 6 Sudeste 17 Sudoeste 0 -- -- 28
2019-06-02 11:00:00 22.4 6 Sudeste 16 Este 0 -- -- 30
2019-06-02 10:00:00 21.3 5 Sudeste 20 Sudeste 0 -- -- 34
2019-06-02 09:00:00 18.8 4 Este 9 Sudeste 0 -- -- 40
2019-06-02 08:00:00 9.1 0 Calma -- -- 0 -- -- 88
2019-06-02 07:00:00 7.8 0 Calma -- -- 0 -- -- 88
2019-06-02 06:00:00 8.1 0 Calma -- -- 0 -- -- 88
2019-06-02 05:00:00 8.3 0 Calma -- -- 0 -- -- 86
2019-06-02 04:00:00 8.7 0 Calma -- -- 0 -- -- 84
2019-06-02 03:00:00 9.5 0 Calma -- -- 0 -- -- 82
2019-06-02 02:00:00 10.2 0 Calma -- -- 0 -- -- 80
2019-06-02 01:00:00 11.3 0 Calma -- -- 0 -- -- 75
2019-06-02 00:00:00 12.8 0 Calma 5 Nordeste 0 -- -- 67
2019-06-01 23:00:00 15 0 Calma 9 Sudeste 0 -- -- 57
2019-06-01 22:00:00 15.7 0 Calma 8 Sur 0 -- -- 54
2019-06-01 21:00:00 17.9 2 Sudeste 14 Sudeste 0 -- -- 44
2019-06-01 20:00:00 19.7 3 Sudeste 13 Sudeste 0 -- -- 38
2019-06-01 19:00:00 20.7 4 Este 13 Este 0 -- -- 36
2019-06-01 18:00:00 21.3 3 Sudeste 13 Sur 0 -- -- 35
2019-06-01 17:00:00 21.8 0 Calma 14 Sur 0 -- -- 35
2019-06-01 16:00:00 22.4 2 Este 17 Sur 0 -- -- 32
2019-06-01 15:00:00 22.5 5 Este 18 Sur 0 -- -- 33
2019-06-01 14:00:00 22.9 3 Sudeste 17 Sudeste 0 -- -- 32
2019-06-01 13:00:00 22.2 8 Este 22 Este 0 -- -- 34
2019-06-01 12:00:00 22.2 3 Sur 17 Sudoeste 0 -- -- 33
2019-06-01 11:00:00 21.9 5 Sur 13 Sudoeste 0 -- -- 35
2019-06-01 10:00:00 21.1 3 Sur 10 Sur 0 -- -- 37
2019-06-01 09:00:00 16.2 0 Calma 3 Sudeste 0 -- -- 79
2019-06-01 08:00:00 9.6 0 Calma -- -- 0 -- -- 90
2019-06-01 07:00:00 8.4 0 Calma -- -- 0 -- -- 89
2019-06-01 06:00:00 8.6 0 Calma -- -- 0 -- -- 89
2019-06-01 05:00:00 8.8 0 Calma -- -- 0 -- -- 89
2019-06-01 04:00:00 9.2 0 Calma 0 Calma 0 -- -- 88
2019-06-01 03:00:00 9.8 0 Calma -- -- 0 -- -- 87
2019-06-01 02:00:00 10.2 0 Calma -- -- 0 -- -- 86
2019-06-01 01:00:00 11.2 0 Calma -- -- 0 -- -- 84
2019-06-01 00:00:00 12.2 0 Calma -- -- 0 -- -- 80
2019-05-31 23:00:00 13.8 0 Calma 6 Este 0 -- -- 75
2019-05-31 22:00:00 15.4 4 Este 10 Este 0 -- -- 69
2019-05-31 21:00:00 16 0 Calma 4 Sur 0 -- -- 65
2019-05-31 20:00:00 18 0 Calma 13 Sudoeste 0 -- -- 50
2019-05-31 19:00:00 19.7 0 Calma 15 Sudoeste 0 -- -- 43
2019-05-31 18:00:00 20.4 0 Calma 11 Sudeste 0 -- -- 42
2019-05-31 17:00:00 21.5 0 Calma 13 Sudeste 0 -- -- 38
2019-05-31 16:00:00 21.4 2 Este 16 Sudoeste 0 -- -- 36
2019-05-31 15:00:00 21.9 3 Sudoeste 16 Sudoeste 0 -- -- 35
2019-05-31 14:00:00 21.7 3 Sur 14 Oeste 0 -- -- 35
2019-05-31 13:00:00 21.6 2 Sur 21 Sudoeste 0 -- -- 33
2019-05-31 12:00:00 21.9 5 Sudoeste 15 Sur 0 -- -- 34
2019-05-31 11:00:00 20.9 0 Calma 13 Sur 0 -- -- 33
2019-05-31 10:00:00 19.3 0 Calma 9 Este 0 -- -- 35
2019-05-31 09:00:00 15.8 0 Calma 6 Sur 0 -- -- 60
2019-05-31 08:00:00 8.7 0 Calma -- -- 0 -- -- 90
2019-05-31 07:00:00 7.1 0 Calma -- -- 0 -- -- 89
2019-05-31 06:00:00 7.1 0 Calma -- -- 0 -- -- 89
2019-05-31 05:00:00 7.4 0 Calma -- -- 0 -- -- 89
2019-05-31 04:00:00 7.6 0 Calma -- -- 0 -- -- 88
2019-05-31 03:00:00 8 0 Calma -- -- 0 -- -- 87
2019-05-31 02:00:00 8.3 0 Calma -- -- 0 -- -- 86
2019-05-31 01:00:00 9 0 Calma -- -- 0 -- -- 84
2019-05-31 00:00:00 9.6 0 Calma -- -- 0 -- -- 80
2019-05-30 23:00:00 10.7 0 Calma -- -- 0 -- -- 76
2019-05-30 22:00:00 12.1 0 Calma -- -- 0 -- -- 69
2019-05-30 21:00:00 14.2 0 Calma 7 Sudoeste 0 -- -- 58
2019-05-30 20:00:00 16.1 0 Calma 13 Sudeste 0 -- -- 49
2019-05-30 19:00:00 17.9 3 Sudeste 12 Este 0 -- -- 41
2019-05-30 18:00:00 18.4 4 Sur 17 Oeste 0 -- -- 40
2019-05-30 17:00:00 19.1 4 Sur 16 Sur 0 -- -- 41
2019-05-30 16:00:00 19 4 Sur 19 Sur 0 -- -- 44
2019-05-30 15:00:00 19 5 Sudeste 22 Sur 0 -- -- 53
2019-05-30 14:00:00 18.3 6 Sudeste 17 Sudeste 0 -- -- 55
2019-05-30 13:00:00 19 5 Sudeste 19 Sudoeste 0 -- -- 52
2019-05-30 12:00:00 18.4 5 Sudeste 17 Este 0 -- -- 56
2019-05-30 11:00:00 17.8 5 Sudeste 16 Sudeste 0 -- -- 58
2019-05-30 10:00:00 16.8 3 Sur 15 Nordeste 0 -- -- 64
2019-05-30 09:00:00 14.5 0 Calma 7 Este 0 -- -- 82
2019-05-30 08:00:00 7.7 0 Calma -- -- 0 -- -- 90
2019-05-30 07:00:00 6.3 0 Calma -- -- 0 -- -- 90
2019-05-30 06:00:00 6.5 0 Calma -- -- 0 -- -- 90
2019-05-30 05:00:00 6.6 0 Calma -- -- 0 -- -- 90
2019-05-30 04:00:00 6.9 0 Calma -- -- 0 -- -- 90
2019-05-30 03:00:00 7.3 0 Calma -- -- 0 -- -- 89
2019-05-30 02:00:00 8 0 Calma -- -- 0 -- -- 88
2019-05-30 01:00:00 9.1 0 Calma 4 Sur 0 -- -- 88
2019-05-30 00:00:00 10.6 0 Calma 8 Este 0 -- -- 87
2019-05-29 23:00:00 11.5 0 Calma 13 Sudeste 0 -- -- 85
2019-05-29 22:00:00 12.1 3 Sudeste 13 Sudeste 0 -- -- 83
2019-05-29 21:00:00 13 4 Sudeste 13 Sudeste 0 -- -- 77
2019-05-29 20:00:00 14 4 Sudeste 15 Sudeste 0 -- -- 72
2019-05-29 19:00:00 14.9 5 Sur 18 Sudoeste 0 -- -- 66
2019-05-29 18:00:00 15.3 0 Calma 10 Sudeste 0 -- -- 68
2019-05-29 17:00:00 14.6 0 Calma 16 Sur 0 -- -- 73
2019-05-29 16:00:00 15.6 5 Sur 15 Este 0 -- -- 67
2019-05-29 15:00:00 16.6 2 Este 19 Sudoeste 0 -- -- 56
2019-05-29 14:00:00 16.4 6 Sudeste 18 Sudeste 0 -- -- 60
2019-05-29 13:00:00 15.8 3 Sudeste 14 Sudoeste 0 -- -- 58
2019-05-29 12:00:00 14.8 6 Sudeste 18 Sur 0 -- -- 63
2019-05-29 11:00:00 16.1 5 Sur 18 Sur 0 -- -- 67
2019-05-29 10:00:00 15.1 5 Sudeste 17 Sur 0 -- -- 66
2019-05-29 09:00:00 14.5 6 Sudeste 13 Sudeste 0 -- -- 71
2019-05-29 08:00:00 9.9 0 Calma 7 Sur 0 -- -- 89
2019-05-29 07:00:00 8.3 0 Calma -- -- 0 -- -- 88
2019-05-29 06:00:00 9.1 0 Calma -- -- 0 -- -- 86
2019-05-29 05:00:00 10 0 Calma -- -- 0 -- -- 84
2019-05-29 04:00:00 10.9 0 Calma -- -- 0 -- -- 82
2019-05-29 03:00:00 11.1 0 Calma 7 Sudeste 0 -- -- 78
2019-05-29 02:00:00 11.7 0 Calma 11 Sudeste 0 -- -- 74
2019-05-29 01:00:00 12.7 4 Sudeste 16 Sur 0 -- -- 70
2019-05-29 00:00:00 12.4 0 Calma 14 Sudoeste 0 -- -- 70
2019-05-28 23:00:00 12 4 Sur 13 Sur 0 -- -- 72
2019-05-28 22:00:00 12.8 3 Sur 15 Sur 0 -- -- 77
2019-05-28 21:00:00 13.2 4 Sudeste 19 Sudeste 0 -- -- 76
2019-05-28 20:00:00 14.5 3 Este 14 Norte 0 -- -- 71
2019-05-28 19:00:00 15.3 0 Calma 15 Sudoeste 0 -- -- 67
2019-05-28 18:00:00 15.8 3 Sur 14 Sudoeste 0 -- -- 68
2019-05-28 17:00:00 16 2 Sur 15 Nordeste 0 -- -- 67
2019-05-28 16:00:00 15.6 4 Sudeste 16 Sur 0 -- -- 68
2019-05-28 15:00:00 16 0 Calma 13 Este 0 -- -- 68
2019-05-28 14:00:00 16.6 0 Calma 10 Este 0 -- -- 68
2019-05-28 13:00:00 17 3 Este 13 Nordeste 0 -- -- 66
2019-05-28 12:00:00 17.7 0 Calma 15 Sudeste 0 -- -- 67
2019-05-28 11:00:00 16.8 2 Sudeste 14 Este 0 -- -- 74
2019-05-28 10:00:00 16.2 0 Calma 9 Este 0 -- -- 78
2019-05-28 09:00:00 14.7 0 Calma -- -- 0 -- -- 86
2019-05-28 08:00:00 11.9 0 Calma 6 Noroeste 0 -- -- 90
2019-05-28 07:00:00 9.5 0 Calma 5 Este 0 -- -- 90
2019-05-28 06:00:00 9 0 Calma -- -- 0 -- -- 90
2019-05-28 05:00:00 9.2 0 Calma -- -- 0 -- -- 90
2019-05-28 04:00:00 9.4 0 Calma -- -- 0 -- -- 89
2019-05-28 03:00:00 9.8 0 Calma -- -- 0 -- -- 89
2019-05-28 02:00:00 10.4 0 Calma -- -- 0 -- -- 88
2019-05-28 01:00:00 11.6 0 Calma -- -- 0 -- -- 87
2019-05-28 00:00:00 12.8 0 Calma 3 Este 0 -- -- 86
2019-05-27 23:00:00 13.5 0 Calma -- -- 0 -- -- 85
2019-05-27 22:00:00 14.5 0 Calma 6 Este 0 -- -- 82
2019-05-27 21:00:00 16 0 Calma 10 Este 0 -- -- 75
2019-05-27 20:00:00 17.7 0 Calma 15 Sudeste 0 -- -- 65
2019-05-27 19:00:00 18.5 0 Calma 12 Sudeste 0 -- -- 57
2019-05-27 18:00:00 19.7 3 Sudeste 21 Sudoeste 0 -- -- 45
2019-05-27 17:00:00 19.5 0 Calma 13 Oeste 0 -- -- 48
2019-05-27 16:00:00 19.7 0 Calma 10 Este 0 -- -- 46
2019-05-27 15:00:00 20 0 Calma 12 Sudoeste 0 -- -- 44
2019-05-27 14:00:00 19.6 0 Calma 11 Este 0 -- -- 48
2019-05-27 13:00:00 19.5 0 Calma 8 Sudoeste 0 -- -- 48
2019-05-27 12:00:00 18.5 0 Calma 7 Este 0 -- -- 51
2019-05-27 11:00:00 18.3 0 Calma 14 Este 0 -- -- 44
2019-05-27 10:00:00 17.4 0 Calma 15 Este 0 -- -- 48
2019-05-27 09:00:00 16.8 0 Calma 8 Nordeste 0 -- -- 55
2019-05-27 08:00:00 9.5 0 Calma 8 Sudeste 0 -- -- 89
2019-05-27 07:00:00 8.3 0 Calma -- -- 0 -- -- 88
2019-05-27 06:00:00 8.6 0 Calma -- -- 0 -- -- 86
2019-05-27 05:00:00 9.4 0 Calma 7 Sudeste 0 -- -- 85
2019-05-27 04:00:00 9.7 0 Calma 10 Sur 0 -- -- 89
2019-05-27 03:00:00 9.5 0 Calma 5 Sur 0 -- -- 89
2019-05-27 02:00:00 8.4 0 Calma -- -- 0 -- -- 88
2019-05-27 01:00:00 9.3 0 Calma -- -- 0 -- -- 87
2019-05-27 00:00:00 9.9 0 Calma -- -- 0 -- -- 85